createdAt,value
2018-12-10T00:00:09.505Z,11.20
2018-12-10T00:02:42.904Z,11.80
2018-12-10T00:05:15.002Z,10.40
2018-12-10T00:07:47.247Z,11.00
2018-12-10T00:10:17.677Z,10.53
2018-12-10T00:12:48.560Z,10.13
2018-12-10T00:17:55.419Z,10.43
2018-12-10T00:20:25.629Z,9.43
2018-12-10T00:22:56.043Z,9.87
2018-12-10T00:25:27.183Z,9.07
2018-12-10T00:27:58.184Z,8.90
2018-12-10T00:30:28.510Z,8.37
2018-12-10T00:32:58.894Z,8.10
2018-12-10T00:35:29.346Z,6.90
2018-12-10T00:37:59.348Z,6.80
2018-12-10T00:40:29.645Z,7.50
2018-12-10T00:42:59.813Z,6.80
2018-12-10T00:45:30.617Z,7.63
2018-12-10T00:48:01.347Z,7.80
2018-12-10T00:50:31.887Z,7.40
2018-12-10T00:53:03.304Z,7.60
2018-12-10T00:55:33.810Z,8.23
2018-12-10T00:58:04.453Z,7.77
2018-12-10T01:00:34.829Z,8.37
2018-12-10T01:03:05.283Z,7.67
2018-12-10T01:08:13.590Z,7.83
2018-12-10T01:10:43.653Z,6.73
2018-12-10T01:13:13.914Z,8.23
2018-12-10T01:15:44.679Z,6.33
2018-12-10T01:18:14.807Z,6.65
2018-12-10T01:20:45.180Z,5.93
2018-12-10T01:23:15.326Z,6.08
2018-12-10T01:25:46.527Z,6.43
2018-12-10T01:28:16.887Z,6.63
2018-12-10T01:30:46.945Z,5.93
2018-12-10T01:33:17.435Z,6.60
2018-12-10T01:35:47.550Z,5.93
2018-12-10T01:38:18.160Z,5.80
2018-12-10T01:43:24.836Z,4.50
2018-12-10T01:45:54.905Z,4.90
2018-12-10T01:48:25.205Z,4.20
2018-12-10T01:50:55.673Z,3.73
2018-12-10T01:53:26.193Z,4.07
2018-12-10T01:55:56.283Z,4.83
2018-12-10T01:58:26.609Z,5.03
2018-12-10T02:00:57.744Z,5.27
2018-12-10T02:03:28.082Z,4.60
2018-12-10T02:05:58.507Z,3.60
2018-12-10T02:08:29.532Z,3.47
2018-12-10T02:10:59.914Z,3.60
2018-12-10T02:13:30.393Z,4.20
2018-12-10T02:16:00.807Z,4.37
2018-12-10T02:18:35.226Z,3.83
2018-12-10T02:21:05.397Z,4.47
2018-12-10T02:23:35.756Z,4.07
2018-12-10T02:26:06.979Z,4.60
2018-12-10T02:28:42.419Z,5.17
2018-12-10T02:31:13.365Z,5.60
2018-12-10T02:33:44.855Z,5.90
2018-12-10T02:36:15.134Z,5.92
2018-12-10T02:38:45.709Z,6.33
2018-12-10T02:41:16.025Z,7.27
2018-12-10T02:43:46.713Z,6.30
2018-12-10T02:46:17.201Z,7.03
2018-12-10T02:48:47.396Z,7.00
2018-12-10T02:51:17.573Z,6.77
2018-12-10T02:53:47.815Z,6.60
2018-12-10T02:56:18.214Z,7.10
2018-12-10T02:58:48.392Z,3.60
2018-12-10T03:01:18.718Z,3.30
2018-12-10T03:03:49.109Z,4.73
2018-12-10T03:06:19.747Z,4.35
2018-12-10T03:08:51.070Z,6.10
2018-12-10T03:11:21.307Z,7.97
2018-12-10T03:13:51.394Z,7.83
2018-12-10T03:16:21.813Z,8.37
2018-12-10T03:18:52.668Z,8.63
2018-12-10T03:21:27.803Z,7.40
2018-12-10T03:23:58.191Z,7.67
2018-12-10T03:26:28.585Z,7.45
2018-12-10T03:28:59.017Z,6.57
2018-12-10T03:31:29.192Z,6.30
2018-12-10T03:33:59.701Z,6.27
2018-12-10T03:36:29.937Z,5.60
2018-12-10T03:39:00.182Z,4.77
2018-12-10T03:41:30.458Z,4.40
2018-12-10T03:44:01.019Z,4.60
2018-12-10T03:46:31.143Z,4.20
2018-12-10T03:49:01.667Z,4.63
2018-12-10T03:51:33.413Z,4.40
2018-12-10T03:54:03.717Z,4.87
2018-12-10T03:56:33.987Z,4.00
2018-12-10T03:59:04.321Z,4.17
2018-12-10T04:01:34.718Z,4.10
2018-12-10T04:04:06.446Z,4.12
2018-12-10T04:06:37.413Z,3.20
2018-12-10T04:09:08.432Z,3.10
2018-12-10T04:11:38.713Z,3.40
2018-12-10T04:14:08.867Z,3.30
2018-12-10T04:16:39.153Z,3.10
2018-12-10T04:19:09.193Z,3.20
2018-12-10T04:21:40.586Z,3.40
2018-12-10T04:24:10.961Z,2.70
2018-12-10T04:26:41.164Z,3.17
2018-12-10T04:29:12.108Z,3.10
2018-12-10T04:31:42.288Z,2.93
2018-12-10T04:34:12.376Z,2.60
2018-12-10T04:36:42.682Z,2.70
2018-12-10T04:39:12.753Z,2.77
2018-12-10T04:41:43.145Z,2.77
2018-12-10T04:44:14.060Z,2.37
2018-12-10T04:46:44.304Z,2.33
2018-12-10T04:49:14.820Z,2.50
2018-12-10T04:51:45.577Z,2.87
2018-12-10T04:54:15.923Z,2.43
2018-12-10T04:56:46.750Z,2.03
2018-12-10T04:59:18.007Z,2.83
2018-12-10T05:01:48.536Z,2.87
2018-12-10T05:04:18.669Z,2.50
2018-12-10T05:06:49.855Z,2.30
2018-12-10T05:09:20.498Z,2.42
2018-12-10T05:11:51.431Z,2.30
2018-12-10T05:14:22.051Z,2.10
2018-12-10T05:16:52.166Z,2.67
2018-12-10T05:19:22.568Z,2.50
2018-12-10T05:21:53.083Z,2.80
2018-12-10T05:24:23.399Z,2.75
2018-12-10T05:26:58.023Z,3.47
2018-12-10T05:29:28.405Z,3.33
2018-12-10T05:31:58.672Z,3.37
2018-12-10T05:34:28.952Z,3.07
2018-12-10T05:36:59.078Z,3.63
2018-12-10T05:39:29.446Z,3.77
2018-12-10T05:42:00.582Z,3.73
2018-12-10T05:44:30.699Z,3.07
2018-12-10T05:47:01.785Z,3.00
2018-12-10T05:52:09.968Z,3.50
2018-12-10T05:54:40.149Z,4.07
2018-12-10T05:57:11.463Z,3.00
2018-12-10T05:59:41.471Z,3.62
2018-12-10T06:02:11.682Z,3.50
2018-12-10T06:04:42.770Z,2.90
2018-12-10T06:07:13.049Z,3.40
2018-12-10T06:12:20.087Z,3.23
2018-12-10T06:14:49.964Z,2.83
2018-12-10T06:17:20.592Z,3.15
2018-12-10T06:19:50.506Z,2.63
2018-12-10T06:22:20.663Z,2.80
2018-12-10T06:24:50.783Z,2.60
2018-12-10T06:27:20.971Z,2.60
2018-12-10T06:29:51.740Z,2.47
2018-12-10T06:32:22.700Z,2.60
2018-12-10T06:34:52.840Z,3.20
2018-12-10T06:37:23.111Z,3.53
2018-12-10T06:39:53.270Z,3.33
2018-12-10T06:42:23.351Z,3.73
2018-12-10T06:44:53.297Z,3.33
2018-12-10T06:47:23.452Z,3.60
2018-12-10T06:49:53.527Z,3.70
2018-12-10T06:52:24.576Z,3.60
2018-12-10T06:54:55.737Z,3.03
2018-12-10T06:57:26.153Z,3.23
2018-12-10T06:59:56.405Z,3.70
2018-12-10T07:02:26.513Z,3.25
2018-12-10T07:07:32.982Z,3.23
2018-12-10T07:10:03.810Z,2.47
2018-12-10T07:12:33.926Z,2.70
2018-12-10T07:15:05.898Z,2.50
2018-12-10T07:17:36.061Z,2.17
2018-12-10T07:20:07.104Z,1.83
2018-12-10T07:22:37.963Z,1.82
2018-12-10T07:25:08.634Z,2.40
2018-12-10T07:27:39.376Z,2.60
2018-12-10T07:30:10.117Z,3.10
2018-12-10T07:32:40.509Z,2.63
2018-12-10T07:35:10.428Z,3.77
2018-12-10T07:37:40.601Z,3.57
2018-12-10T07:42:47.646Z,4.10
2018-12-10T07:45:17.685Z,3.63
2018-12-10T07:47:47.867Z,3.73
2018-12-10T07:50:21.126Z,3.53
2018-12-10T07:52:51.268Z,3.50
2018-12-10T07:55:21.504Z,3.77
2018-12-10T07:57:54.032Z,3.93
2018-12-10T08:00:24.227Z,3.80
2018-12-10T08:02:55.100Z,3.63
2018-12-10T08:05:25.243Z,4.00
2018-12-10T08:07:55.539Z,4.40
2018-12-10T08:10:25.556Z,4.97
2018-12-10T08:12:55.652Z,5.60
2018-12-10T08:15:25.863Z,4.50
2018-12-10T08:17:55.979Z,5.20
2018-12-10T08:20:26.390Z,5.37
2018-12-10T08:22:56.390Z,5.07
2018-12-10T08:25:26.419Z,4.30
2018-12-10T08:27:57.510Z,3.73
2018-12-10T08:30:28.538Z,4.00
2018-12-10T08:32:58.651Z,3.50
2018-12-10T08:35:28.568Z,3.40
2018-12-10T08:37:58.623Z,3.40
2018-12-10T08:40:29.461Z,3.90
2018-12-10T08:43:00.081Z,4.63
2018-12-10T08:45:30.448Z,5.40
2018-12-10T08:48:00.774Z,5.33
2018-12-10T08:50:30.903Z,5.53
2018-12-10T08:53:00.863Z,5.77
2018-12-10T08:55:31.958Z,4.83
2018-12-10T08:58:02.541Z,5.30
2018-12-10T09:00:36.554Z,5.87
2018-12-10T09:03:06.776Z,5.63
2018-12-10T09:05:36.683Z,5.23
2018-12-10T09:08:07.148Z,5.10
2018-12-10T09:10:37.386Z,5.10
2018-12-10T09:13:08.177Z,5.93
2018-12-10T09:15:38.249Z,6.70
2018-12-10T09:18:09.245Z,6.90
2018-12-10T09:20:39.304Z,6.50
2018-12-10T09:23:09.434Z,6.60
2018-12-10T09:25:39.470Z,6.17
2018-12-10T09:28:09.966Z,6.50
2018-12-10T09:30:39.976Z,7.33
2018-12-10T09:33:10.241Z,6.55
2018-12-10T09:35:40.264Z,6.45
2018-12-10T09:38:10.248Z,6.62
2018-12-10T09:40:40.306Z,7.80
2018-12-10T09:43:10.322Z,7.55
2018-12-10T09:45:40.785Z,7.80
2018-12-10T09:48:11.509Z,6.83
2018-12-10T09:50:41.989Z,6.57
2018-12-10T09:53:12.161Z,5.35
2018-12-10T09:55:42.114Z,6.27
2018-12-10T09:58:12.827Z,6.05
2018-12-10T10:00:42.926Z,5.67
2018-12-10T10:03:13.770Z,5.03
2018-12-10T10:05:43.799Z,4.77
2018-12-10T10:08:14.262Z,3.98
2018-12-10T10:10:44.786Z,3.40
2018-12-10T10:13:15.016Z,3.60
2018-12-10T10:15:45.031Z,3.07
2018-12-10T10:18:15.519Z,4.00
2018-12-10T10:20:45.461Z,3.90
2018-12-10T10:23:15.492Z,3.80
2018-12-10T10:25:45.398Z,3.83
2018-12-10T10:28:15.815Z,4.23
2018-12-10T10:30:45.932Z,4.10
2018-12-10T10:33:15.877Z,4.40
2018-12-10T10:35:46.455Z,4.73
2018-12-10T10:38:16.693Z,4.20
2018-12-10T10:40:47.794Z,4.43
2018-12-10T10:43:19.000Z,4.33
2018-12-10T10:45:49.181Z,4.50
2018-12-10T10:48:19.327Z,4.30
2018-12-10T10:50:49.988Z,4.40
2018-12-10T10:53:20.269Z,4.20
2018-12-10T10:55:50.431Z,4.73
2018-12-10T10:58:22.436Z,4.75
2018-12-10T11:01:59.544Z,5.23
2018-12-10T11:04:37.393Z,4.93
2018-12-10T11:07:01.986Z,4.10
2018-12-10T11:09:32.063Z,3.98
2018-12-10T11:12:02.431Z,3.20
2018-12-10T11:14:34.043Z,2.97
2018-12-10T11:17:04.511Z,3.70
2018-12-10T11:19:34.973Z,3.60
2018-12-10T11:22:05.531Z,4.00
2018-12-10T11:24:35.552Z,3.77
2018-12-10T11:27:05.536Z,3.80
2018-12-10T11:29:36.202Z,3.40
2018-12-10T11:32:06.447Z,3.50
2018-12-10T11:34:37.377Z,3.37
2018-12-10T11:37:07.475Z,3.40
2018-12-10T11:39:37.944Z,4.20
2018-12-10T11:42:07.924Z,4.17
2018-12-10T11:44:38.135Z,3.43
2018-12-10T11:47:13.013Z,3.75
2018-12-10T11:49:40.448Z,4.33
2018-12-10T11:52:10.980Z,4.17
2018-12-10T11:54:41.491Z,4.27
2018-12-10T11:57:12.420Z,4.30
2018-12-10T11:59:42.833Z,4.50
2018-12-10T12:02:14.017Z,4.15
2018-12-10T12:04:43.970Z,3.80
2018-12-10T12:07:16.030Z,4.57
2018-12-10T12:09:46.502Z,4.20
2018-12-10T12:12:17.869Z,4.50
2018-12-10T12:14:48.697Z,4.70
2018-12-10T12:17:19.401Z,5.30
2018-12-10T12:19:49.909Z,4.17
2018-12-10T12:22:20.069Z,4.75
2018-12-10T12:24:50.150Z,4.53
2018-12-10T12:27:20.052Z,5.00
2018-12-10T12:29:50.125Z,4.20
2018-12-10T12:32:20.153Z,4.23
2018-12-10T12:34:50.734Z,4.70
2018-12-10T12:37:21.677Z,4.00
2018-12-10T12:39:52.130Z,3.43
2018-12-10T12:42:22.643Z,4.40
2018-12-10T12:44:52.613Z,4.60
2018-12-10T12:47:22.806Z,3.57
2018-12-10T12:49:53.131Z,4.00
2018-12-10T12:52:23.211Z,5.03
2018-12-10T12:54:54.262Z,4.97
2018-12-10T12:57:24.582Z,5.40
2018-12-10T12:59:55.050Z,6.10
2018-12-10T13:02:25.105Z,5.90
2018-12-10T13:04:55.544Z,5.70
2018-12-10T13:07:25.745Z,6.00
2018-12-10T13:09:55.768Z,6.60
2018-12-10T13:12:26.193Z,5.93
2018-12-10T13:14:56.869Z,5.83
2018-12-10T13:17:27.787Z,5.67
2018-12-10T13:19:58.671Z,5.77
2018-12-10T13:22:28.935Z,5.80
2018-12-10T13:24:59.315Z,6.10
2018-12-10T13:27:29.264Z,6.30
2018-12-10T13:30:00.471Z,6.50
2018-12-10T13:32:31.247Z,6.50
2018-12-10T13:35:01.987Z,6.47
2018-12-10T13:37:33.336Z,5.70
2018-12-10T13:40:03.729Z,5.78
2018-12-10T13:42:33.666Z,6.10
2018-12-10T13:45:06.201Z,5.48
2018-12-10T13:47:36.096Z,5.80
2018-12-10T13:50:06.905Z,5.87
2018-12-10T13:52:37.199Z,6.17
2018-12-10T13:55:07.465Z,6.13
2018-12-10T14:00:14.800Z,5.80
2018-12-10T14:02:45.066Z,6.00
2018-12-10T14:05:16.476Z,5.87
2018-12-10T14:07:48.488Z,7.07
2018-12-10T14:10:18.833Z,6.97
2018-12-10T14:12:49.589Z,6.73
2018-12-10T14:15:19.669Z,6.62
2018-12-10T14:17:49.973Z,6.63
2018-12-10T14:20:20.131Z,7.00
2018-12-10T14:22:51.800Z,7.00
2018-12-10T14:25:27.341Z,6.20
2018-12-10T14:27:58.499Z,6.20
2018-12-10T14:30:28.814Z,6.67
2018-12-10T14:32:59.586Z,8.27
2018-12-10T14:35:30.785Z,9.67
2018-12-10T14:38:00.947Z,9.77
2018-12-10T14:40:31.252Z,9.87
2018-12-10T14:43:02.263Z,7.93
2018-12-10T14:45:33.654Z,7.87
2018-12-10T14:48:03.820Z,6.77
2018-12-10T14:50:34.796Z,7.37
2018-12-10T14:53:05.715Z,6.22
2018-12-10T14:55:35.943Z,7.10
2018-12-10T14:58:06.430Z,7.10
2018-12-10T15:00:37.510Z,6.53
2018-12-10T15:03:10.696Z,7.17
2018-12-10T15:05:41.191Z,8.20
2018-12-10T15:08:11.506Z,9.17
2018-12-10T15:10:41.541Z,4.17
2018-12-10T15:13:12.221Z,4.40
2018-12-10T15:15:42.617Z,5.00
2018-12-10T15:18:13.516Z,5.67
2018-12-10T15:20:43.912Z,5.53
2018-12-10T15:23:14.060Z,5.75
2018-12-10T15:25:44.184Z,8.43
2018-12-10T15:28:14.640Z,9.68
2018-12-10T15:30:44.976Z,9.97
2018-12-10T15:33:18.254Z,10.10
2018-12-10T15:35:48.705Z,10.70
2018-12-10T15:38:19.109Z,8.47
2018-12-10T15:40:50.200Z,6.15
2018-12-10T15:43:21.018Z,6.03
2018-12-10T15:45:51.101Z,7.30
2018-12-10T15:48:21.528Z,7.08
2018-12-10T15:50:52.533Z,7.03
2018-12-10T15:53:22.950Z,7.17
2018-12-10T15:55:52.920Z,6.60
2018-12-10T15:58:23.131Z,5.90
2018-12-10T16:00:53.984Z,7.60
2018-12-10T16:06:01.147Z,8.20
2018-12-10T16:08:31.180Z,8.03
2018-12-10T16:11:02.187Z,7.57
2018-12-10T16:13:32.611Z,7.57
2018-12-10T16:16:03.280Z,7.80
2018-12-10T16:18:33.514Z,7.73
2018-12-10T16:21:04.126Z,7.43
2018-12-10T16:23:34.725Z,8.47
2018-12-10T16:26:05.591Z,8.07
2018-12-10T16:28:40.477Z,9.27
2018-12-10T16:31:11.049Z,9.30
2018-12-10T16:33:41.532Z,9.67
2018-12-10T16:36:13.034Z,10.83
2018-12-10T16:38:43.331Z,10.93
2018-12-10T16:41:14.208Z,11.50
2018-12-10T16:43:44.458Z,10.80
2018-12-10T16:46:14.707Z,12.47
2018-12-10T16:53:05.788Z,10.80
2018-12-10T16:55:35.991Z,11.20
2018-12-10T17:14:11.256Z,12.97
2018-12-10T17:16:41.430Z,12.80
2018-12-10T17:19:11.661Z,13.43
2018-12-10T17:21:42.088Z,13.63
2018-12-10T17:24:12.496Z,14.53
2018-12-10T17:29:19.135Z,10.73
2018-12-10T17:31:49.139Z,11.00
2018-12-10T17:34:19.747Z,10.80
2018-12-10T17:36:50.077Z,7.33
2018-12-10T17:39:20.727Z,7.83
2018-12-10T17:44:36.237Z,4.47
2018-12-10T17:49:43.457Z,5.47
2018-12-10T17:52:13.545Z,8.93
2018-12-10T17:54:44.020Z,10.43
2018-12-10T17:57:14.936Z,12.30
2018-12-10T17:59:45.593Z,11.90
2018-12-10T18:02:16.031Z,11.35
2018-12-10T18:04:50.284Z,14.33
2018-12-10T18:07:20.295Z,16.50
2018-12-10T18:09:51.713Z,14.77
2018-12-10T18:12:22.085Z,15.63
2018-12-10T18:14:52.063Z,13.57
2018-12-10T18:17:22.893Z,16.40
2018-12-10T18:19:54.225Z,17.33
2018-12-10T18:22:24.384Z,19.27
2018-12-10T18:24:54.510Z,21.20
2018-12-10T18:27:24.586Z,20.47
2018-12-10T18:32:37.965Z,20.73
2018-12-10T18:35:08.875Z,22.93
2018-12-10T18:37:39.889Z,27.23
2018-12-10T18:40:13.000Z,29.80
2018-12-10T18:42:43.222Z,29.60
2018-12-10T18:45:16.860Z,31.87
2018-12-10T18:47:49.362Z,30.27
2018-12-10T18:50:19.570Z,28.17
2018-12-10T18:52:49.627Z,27.27
2018-12-10T18:55:20.087Z,25.88
2018-12-10T18:57:50.050Z,25.93
2018-12-10T19:00:20.463Z,25.85
2018-12-10T19:02:50.970Z,24.03
2018-12-10T19:05:26.422Z,21.97
2018-12-10T19:07:57.671Z,19.73
2018-12-10T19:10:28.616Z,21.03
2018-12-10T19:12:58.933Z,17.87
2018-12-10T19:15:29.212Z,15.77
2018-12-10T19:17:59.783Z,15.57
2018-12-10T19:20:31.008Z,14.63
2018-12-10T19:23:00.972Z,13.20
2018-12-10T19:25:33.918Z,14.00
2018-12-10T19:28:04.258Z,14.25
2018-12-10T19:30:34.657Z,13.60
2018-12-10T19:33:06.864Z,15.05
2018-12-10T19:35:37.285Z,14.93
2018-12-10T19:38:07.387Z,14.53
2018-12-10T19:40:38.197Z,14.87
2018-12-10T19:43:08.475Z,14.93
2018-12-10T19:45:38.538Z,15.17
2018-12-10T19:48:08.540Z,16.53
2018-12-10T19:50:38.996Z,16.30
2018-12-10T19:55:45.782Z,18.63
2018-12-10T19:58:15.797Z,20.00
2018-12-10T20:03:26.526Z,21.57
2018-12-10T20:06:02.121Z,22.87
2018-12-10T20:08:32.767Z,23.00
2018-12-10T20:11:03.199Z,22.70
2018-12-10T20:13:34.917Z,23.73
2018-12-10T20:16:06.666Z,25.30
2018-12-10T20:18:37.735Z,24.75
2018-12-10T20:24:53.598Z,27.03
2018-12-10T20:27:23.894Z,28.53
2018-12-10T20:29:54.699Z,30.37
2018-12-10T20:32:24.979Z,31.20
2018-12-10T20:34:56.555Z,30.47
2018-12-10T20:37:26.929Z,29.73
2018-12-10T20:39:57.336Z,30.20
2018-12-10T20:42:27.622Z,32.10
2018-12-10T20:44:57.762Z,31.27
2018-12-10T20:47:28.106Z,31.57
2018-12-10T20:49:58.353Z,30.60
2018-12-10T20:52:29.724Z,29.63
2018-12-10T21:02:32.070Z,29.87
2018-12-10T21:05:03.512Z,32.00
2018-12-10T21:07:33.840Z,30.77
2018-12-10T21:10:04.573Z,29.73
2018-12-10T21:12:35.623Z,29.80
2018-12-10T21:15:06.927Z,31.57
2018-12-10T21:17:37.062Z,29.97
2018-12-10T21:20:07.653Z,28.23
2018-12-10T21:22:37.810Z,28.03
2018-12-10T21:25:08.134Z,30.23
2018-12-10T21:27:38.302Z,29.00
2018-12-10T21:30:08.696Z,28.77
2018-12-10T21:32:38.999Z,29.00
2018-12-10T21:35:09.140Z,28.20
2018-12-10T21:37:40.301Z,28.42
2018-12-10T21:43:03.395Z,29.03
2018-12-10T21:45:33.549Z,29.47
2018-12-10T21:48:03.870Z,29.23
2018-12-10T21:50:34.100Z,29.07
2018-12-10T21:53:04.511Z,30.27
2018-12-10T21:55:35.413Z,28.27
2018-12-10T21:58:05.919Z,30.17
2018-12-10T22:00:40.126Z,29.67
2018-12-10T22:03:10.701Z,29.12
2018-12-10T22:05:40.887Z,31.63
2018-12-10T22:08:11.290Z,29.95
2018-12-10T22:10:41.893Z,30.27
2018-12-10T22:13:12.283Z,29.67
2018-12-10T22:15:42.470Z,29.37
2018-12-10T22:18:12.870Z,27.50
2018-12-10T22:20:43.706Z,27.53
2018-12-10T22:23:13.866Z,25.93
2018-12-10T22:25:44.151Z,27.30
2018-12-10T22:28:14.778Z,26.65
2018-12-10T22:30:45.265Z,26.07
2018-12-10T22:35:58.297Z,26.50
2018-12-10T22:38:29.604Z,26.13
2018-12-10T22:41:00.656Z,27.43
2018-12-10T22:43:31.654Z,26.40
2018-12-10T22:46:02.604Z,24.73
2018-12-10T22:48:32.984Z,24.07
2018-12-10T22:51:03.241Z,25.73
2018-12-10T22:53:33.392Z,25.80
2018-12-10T22:56:04.099Z,24.63
2018-12-10T22:58:34.694Z,26.30
2018-12-10T23:01:06.105Z,23.98
2018-12-10T23:03:38.630Z,24.03
2018-12-10T23:06:09.756Z,24.23
2018-12-10T23:08:41.004Z,24.33
2018-12-10T23:11:11.723Z,24.35
2018-12-10T23:13:42.681Z,23.80
2018-12-10T23:16:13.225Z,26.17
2018-12-10T23:21:20.308Z,25.30
2018-12-10T23:23:50.581Z,23.60
2018-12-10T23:26:21.331Z,26.73
2018-12-10T23:28:51.811Z,25.87
2018-12-10T23:31:23.473Z,27.13
2018-12-10T23:33:54.933Z,26.10
2018-12-10T23:36:25.623Z,26.33
2018-12-10T23:38:56.264Z,27.43
2018-12-10T23:41:26.844Z,27.67
2018-12-10T23:43:57.448Z,26.03
2018-12-10T23:46:28.107Z,25.67
2018-12-10T23:48:59.316Z,26.63
2018-12-10T23:51:30.824Z,25.40
2018-12-10T23:54:01.384Z,24.47
2018-12-10T23:56:32.106Z,22.80
2018-12-10T23:59:19.174Z,22.77
